Calico, South Dakota
Current Conditions -  °F | °C
As of 7:52 AM on Saturday 25 Oct 2014 (Local Time) from KIEN Reporting Station
Clear Clear  
Wind Chill: 28°   Ceiling: Unl
Heat Index: 28°   Visibility: 10mi
Dew Point: 26°   Wind: 3mph
Humidity: 92%   Direction: 90°E
Pressure: 30.18"   Gusts: NA
Location:  43.3266°N, 102.736°W
Report Text: KIEN 251352Z AUTO 09003KT 10SM CLR M02/M03 A3018 RMK AO2 SLP237 T10221033
Loading
Personal Weather Stations






























Interactive Weather Map
Tropical Storm Tracking
New forecast layout! Learn more

10-Day Weather Forecast

Advertisements
Track Severe Weather on mobile